createdAt,value
2023-01-13T00:00:42.734Z,75.3
2023-01-13T00:04:45.230Z,75.3
2023-01-13T00:06:46.817Z,74.95
2023-01-13T00:08:48.059Z,75.44
2023-01-13T00:10:49.794Z,74.95
2023-01-13T00:12:50.820Z,75.22
2023-01-13T00:14:52.326Z,75.04
2023-01-13T00:16:53.818Z,75.28
2023-01-13T00:18:54.825Z,75.3
2023-01-13T00:20:56.312Z,75.42
2023-01-13T00:22:58.074Z,75.36
2023-01-13T00:24:59.143Z,75.76
2023-01-13T00:27:00.427Z,75.54
2023-01-13T00:29:02.222Z,75.31
2023-01-13T00:31:03.329Z,75.48
2023-01-13T00:33:05.008Z,75.56
2023-01-13T00:35:06.326Z,75.78
2023-01-13T00:37:07.376Z,75.59
2023-01-13T00:39:09.058Z,75.47
2023-01-13T00:41:10.224Z,75.56
2023-01-13T00:43:11.151Z,75.72
2023-01-13T00:45:12.404Z,75.77
2023-01-13T00:47:14.131Z,75.8
2023-01-13T00:49:15.503Z,75.97
2023-01-13T00:51:17.331Z,75.77
2023-01-13T00:53:18.470Z,76.07
2023-01-13T00:55:19.514Z,76.41
2023-01-13T00:57:20.893Z,76.45
2023-01-13T00:59:22.589Z,76.26
2023-01-13T01:03:26.076Z,75.99
2023-01-13T01:05:27.579Z,76.07
2023-01-13T01:07:29.503Z,76.24
2023-01-13T01:09:31.105Z,76.48
2023-01-13T01:11:32.282Z,76.33
2023-01-13T01:13:34.203Z,76.45
2023-01-13T01:15:35.562Z,76.88
2023-01-13T01:17:36.851Z,77.26
2023-01-13T01:19:38.206Z,77.7
2023-01-13T01:21:39.914Z,77.85
2023-01-13T01:23:40.859Z,77.22
2023-01-13T01:25:42.547Z,77.27
2023-01-13T01:27:44.383Z,76.96
2023-01-13T01:29:45.639Z,76.89
2023-01-13T01:31:47.049Z,77.56
2023-01-13T01:33:48.192Z,77.35
2023-01-13T01:35:49.441Z,76.84
2023-01-13T01:37:50.438Z,76.69
2023-01-13T01:39:51.537Z,77.36
2023-01-13T01:41:53.227Z,77.6
2023-01-13T01:45:55.718Z,79.42
2023-01-13T01:47:56.720Z,80.3
2023-01-13T01:49:57.840Z,81.22
2023-01-13T01:51:59.499Z,81.32
2023-01-13T01:54:00.835Z,81.71
2023-01-13T01:56:02.275Z,81.16
2023-01-13T01:58:03.805Z,80.64
2023-01-13T02:00:05.318Z,80.43
2023-01-13T02:02:06.669Z,80.61
2023-01-13T02:04:08.122Z,80.41
2023-01-13T02:06:09.465Z,80.38
2023-01-13T02:08:11.040Z,80.1
2023-01-13T02:10:12.516Z,80.26
2023-01-13T02:12:13.765Z,80.05
2023-01-13T02:14:15.162Z,79.89
2023-01-13T02:18:17.986Z,80.06
2023-01-13T02:20:18.998Z,80.03
2023-01-13T02:22:20.687Z,80.45
2023-01-13T02:24:22.259Z,81.02
2023-01-13T02:28:25.105Z,81.95
2023-01-13T02:30:27.006Z,82.24
2023-01-13T02:32:28.180Z,82.55
2023-01-13T02:34:29.215Z,82.97
2023-01-13T02:36:30.738Z,83.43
2023-01-13T02:38:31.761Z,83.72
2023-01-13T02:40:33.188Z,83.86
2023-01-13T02:44:35.786Z,84.63
2023-01-13T02:46:36.963Z,84.69
2023-01-13T02:48:38.265Z,84.1
2023-01-13T02:50:39.888Z,84.09
2023-01-13T02:52:41.605Z,83.73
2023-01-13T02:54:42.583Z,83.72
2023-01-13T02:56:44.239Z,83.86
2023-01-13T02:58:45.588Z,83.16
2023-01-13T03:00:46.703Z,83.12
2023-01-13T03:02:47.825Z,83
2023-01-13T03:04:49.168Z,83
2023-01-13T03:06:50.549Z,82.96
2023-01-13T03:10:53.904Z,81.97
2023-01-13T03:12:55.652Z,82.22
2023-01-13T03:14:57.504Z,81.81
2023-01-13T03:16:58.910Z,81.56
2023-01-13T03:19:00.716Z,81.68
2023-01-13T03:21:01.862Z,81.31
2023-01-13T03:23:03.541Z,81.39
2023-01-13T03:25:04.487Z,81.59
2023-01-13T03:27:05.699Z,81.5
2023-01-13T03:29:06.931Z,81.57
2023-01-13T03:31:08.187Z,81.84
2023-01-13T03:33:09.200Z,82.07
2023-01-13T03:35:10.696Z,81.87
2023-01-13T03:37:12.072Z,81.87
2023-01-13T03:39:13.179Z,81.91
2023-01-13T03:41:14.758Z,81.68
2023-01-13T03:43:16.633Z,81.26
2023-01-13T03:45:17.650Z,81.73
2023-01-13T03:47:19.288Z,81.66
2023-01-13T03:49:20.543Z,81.79
2023-01-13T03:51:21.605Z,81.84
2023-01-13T03:53:23.013Z,82.22
2023-01-13T03:55:24.156Z,82.36
2023-01-13T03:59:26.279Z,82.43
2023-01-13T04:01:27.651Z,82.59
2023-01-13T04:04:12.857Z,82.83
2023-01-13T04:06:13.847Z,82.61
2023-01-13T04:08:15.118Z,82.96
2023-01-13T04:10:16.644Z,84.16
2023-01-13T04:12:18.125Z,85.59
2023-01-13T04:14:19.753Z,85.92
2023-01-13T04:16:21.362Z,86.15
2023-01-13T04:18:22.973Z,86.73
2023-01-13T04:20:24.375Z,87.28
2023-01-13T04:22:25.571Z,87.64
2023-01-13T04:26:28.394Z,87.77
2023-01-13T04:28:29.288Z,88.46
2023-01-13T04:30:31.204Z,89.13
2023-01-13T04:32:32.274Z,89.45
2023-01-13T04:36:35.585Z,89.61
2023-01-13T04:38:37.106Z,89.46
2023-01-13T04:40:38.227Z,89.17
2023-01-13T04:42:39.743Z,89.42
2023-01-13T04:44:41.517Z,89.07
2023-01-13T04:46:42.758Z,88.8
2023-01-13T04:48:44.120Z,89.06
2023-01-13T04:50:45.228Z,89.04
2023-01-13T04:52:46.291Z,89.39
2023-01-13T04:54:47.737Z,89.84
2023-01-13T04:56:49.319Z,90.26
2023-01-13T04:58:51.084Z,90.48
2023-01-13T05:00:52.391Z,90.8
2023-01-13T05:02:53.926Z,91.16
2023-01-13T05:04:55.056Z,91.31
2023-01-13T05:06:56.216Z,91.62
2023-01-13T05:08:58.008Z,91.73
2023-01-13T05:10:58.982Z,92.18
2023-01-13T05:13:00.274Z,92.45
2023-01-13T05:15:01.883Z,92.69
2023-01-13T05:17:03.613Z,92.76
2023-01-13T05:19:05.245Z,92.76
2023-01-13T05:21:06.188Z,93.09
2023-01-13T05:25:09.429Z,93.45
2023-01-13T05:27:11.045Z,93.73
2023-01-13T05:29:12.691Z,93.45
2023-01-13T05:31:13.738Z,93.46
2023-01-13T05:35:16.660Z,93.89
2023-01-13T05:37:17.723Z,94.04
2023-01-13T05:39:19.019Z,94.15
2023-01-13T05:41:20.630Z,94.16
2023-01-13T05:43:22.402Z,94.2
2023-01-13T05:45:23.577Z,94.09
2023-01-13T05:47:24.588Z,94.04
2023-01-13T05:49:25.812Z,94.04
2023-01-13T05:51:35.239Z,93.94
2023-01-13T05:53:28.193Z,93.75
2023-01-13T05:55:29.212Z,93.67
2023-01-13T05:57:31.008Z,93.63
2023-01-13T05:59:32.266Z,93.54
2023-01-13T06:01:34.273Z,93.41
2023-01-13T06:03:35.513Z,93.26
2023-01-13T06:05:37.070Z,92.84
2023-01-13T06:07:38.561Z,92.69
2023-01-13T06:09:40.169Z,92.29
2023-01-13T06:11:41.953Z,92.12
2023-01-13T06:13:43.047Z,92.07
2023-01-13T06:17:46.722Z,91.71
2023-01-13T06:19:48.196Z,90.83
2023-01-13T06:21:49.434Z,90.51
2023-01-13T06:23:50.997Z,90.35
2023-01-13T06:25:52.226Z,89.68
2023-01-13T06:27:53.352Z,89.48
2023-01-13T06:29:55.162Z,89.26
2023-01-13T06:31:56.435Z,88.95
2023-01-13T06:33:57.348Z,88.44
2023-01-13T06:36:07.572Z,88.44
2023-01-13T06:37:59.490Z,87.67
2023-01-13T06:40:00.918Z,87.69
2023-01-13T06:42:01.935Z,87
2023-01-13T06:44:03.206Z,86.48
2023-01-13T06:46:04.647Z,86.25
2023-01-13T06:50:07.941Z,86.03
2023-01-13T06:52:09.216Z,86.14
2023-01-13T06:54:11.019Z,86.6
2023-01-13T06:56:12.723Z,86.46
2023-01-13T07:00:14.983Z,86.84
2023-01-13T07:02:16.840Z,86.44
2023-01-13T07:04:18.615Z,85.6
2023-01-13T07:06:19.766Z,86.23
2023-01-13T07:08:21.654Z,85.31
2023-01-13T07:10:23.359Z,85.62
2023-01-13T07:12:24.877Z,86.04
2023-01-13T07:14:26.242Z,85.95
2023-01-13T07:16:28.222Z,85.81
2023-01-13T07:18:29.795Z,85.45
2023-01-13T07:20:31.065Z,85.06
2023-01-13T07:22:32.806Z,85.29
2023-01-13T07:24:34.492Z,85.25
2023-01-13T07:26:36.160Z,84.91
2023-01-13T07:28:38.056Z,85.11
2023-01-13T07:30:39.588Z,85.45
2023-01-13T07:32:41.327Z,85.47
2023-01-13T07:34:42.836Z,85.8
2023-01-13T07:36:44.089Z,87.01
2023-01-13T07:38:45.776Z,87.33
2023-01-13T07:40:47.057Z,87.54
2023-01-13T07:42:48.342Z,88.74
2023-01-13T07:44:49.693Z,89.25
2023-01-13T07:48:52.521Z,90.39
2023-01-13T07:50:53.847Z,91.11
2023-01-13T07:52:55.223Z,91.35
2023-01-13T07:54:57.072Z,90.81
2023-01-13T07:58:59.743Z,91.67
2023-01-13T08:01:00.880Z,92.37
2023-01-13T08:03:02.328Z,92.62
2023-01-13T08:05:03.744Z,92.98
2023-01-13T08:07:04.723Z,93.4
2023-01-13T08:09:06.321Z,93.45
2023-01-13T08:11:07.518Z,93.84
2023-01-13T08:13:08.602Z,94.18
2023-01-13T08:15:09.643Z,94.28
2023-01-13T08:17:11.368Z,94.35
2023-01-13T08:19:12.845Z,94.31
2023-01-13T08:21:14.130Z,94.51
2023-01-13T08:23:15.702Z,94.66
2023-01-13T08:25:17.354Z,94.54
2023-01-13T08:27:18.306Z,94.54
2023-01-13T08:29:19.572Z,94.61
2023-01-13T08:31:21.200Z,94.91
2023-01-13T08:33:23.101Z,95.16
2023-01-13T08:35:24.494Z,95.3
2023-01-13T08:37:25.614Z,95.11
2023-01-13T08:41:28.754Z,93.73
2023-01-13T08:43:30.227Z,93.72
2023-01-13T08:45:32.035Z,91.36
2023-01-13T08:47:33.534Z,91.26
2023-01-13T08:49:34.859Z,89.93
2023-01-13T08:51:36.456Z,90.47
2023-01-13T08:53:37.449Z,89.91
2023-01-13T08:55:38.459Z,89.28
2023-01-13T08:57:39.988Z,90.52
2023-01-13T08:59:41.052Z,88.54
2023-01-13T09:01:43.111Z,89.49
2023-01-13T09:03:44.305Z,89.67
2023-01-13T09:05:45.325Z,90.54
2023-01-13T09:07:46.297Z,91.1
2023-01-13T09:09:47.519Z,91.13
2023-01-13T09:13:50.329Z,91.32
2023-01-13T09:15:51.941Z,90.88
2023-01-13T09:17:53.794Z,90.74
2023-01-13T09:19:55.962Z,90.42
2023-01-13T09:23:58.662Z,90.73
2023-01-13T09:25:59.600Z,90.89
2023-01-13T09:28:00.895Z,90.37
2023-01-13T09:30:01.886Z,89.38
2023-01-13T09:32:03.063Z,89.7
2023-01-13T09:34:04.226Z,89.72
2023-01-13T09:36:06.084Z,89.38
2023-01-13T09:38:07.560Z,89.15
2023-01-13T09:40:08.857Z,87.06
2023-01-13T09:42:09.861Z,88.57
2023-01-13T09:44:10.859Z,87.92
2023-01-13T09:46:12.090Z,87.53
2023-01-13T09:48:13.295Z,88.37
2023-01-13T09:50:14.606Z,88.46
2023-01-13T09:52:15.661Z,88.7
2023-01-13T09:54:17.294Z,88.84
2023-01-13T09:56:18.210Z,88.71
2023-01-13T09:58:19.945Z,89.15
2023-01-13T10:00:21.197Z,89.17
2023-01-13T10:02:22.513Z,88.65
2023-01-13T10:04:24.404Z,89.12
2023-01-13T10:06:26.247Z,88.92
2023-01-13T10:08:27.834Z,89.08
2023-01-13T10:12:30.713Z,89.16
2023-01-13T10:14:32.459Z,89.25
2023-01-13T10:16:34.001Z,89.2
2023-01-13T10:18:34.973Z,89.54
2023-01-13T10:22:37.638Z,88.39
2023-01-13T10:24:39.036Z,88.19
2023-01-13T10:26:40.801Z,87.76
2023-01-13T10:28:41.870Z,88.11
2023-01-13T10:30:42.928Z,88.14
2023-01-13T10:32:44.255Z,87.38
2023-01-13T10:34:46.114Z,86.37
2023-01-13T10:36:47.497Z,86.85
2023-01-13T10:38:49.362Z,87.08
2023-01-13T10:40:50.652Z,87.6
2023-01-13T10:42:51.780Z,87.98
2023-01-13T10:44:53.301Z,87.98
2023-01-13T10:46:54.940Z,87.63
2023-01-13T10:49:48.077Z,87.46
2023-01-13T10:51:49.715Z,87.81
2023-01-13T10:53:51.002Z,87.65
2023-01-13T10:55:54.793Z,87.87
2023-01-13T10:57:54.227Z,87.37
2023-01-13T10:59:55.420Z,87.57
2023-01-13T11:01:57.022Z,87.5
2023-01-13T11:03:58.474Z,87.15
2023-01-13T11:05:59.984Z,86.91
2023-01-13T11:08:01.240Z,87.14
2023-01-13T11:10:02.991Z,87.56
2023-01-13T11:12:03.941Z,87.29
2023-01-13T11:14:06.137Z,87.08
2023-01-13T11:16:06.639Z,87.34
2023-01-13T11:18:07.598Z,87.06
2023-01-13T11:20:08.816Z,87.33
2023-01-13T11:22:10.400Z,87.07
2023-01-13T11:24:11.929Z,86.85
2023-01-13T11:26:12.928Z,86.4
2023-01-13T11:28:14.223Z,86.72
2023-01-13T11:30:16.118Z,86.31
2023-01-13T11:32:17.251Z,86.89
2023-01-13T11:34:18.753Z,85.68
2023-01-13T11:36:20.660Z,85.6
2023-01-13T11:38:21.297Z,86.05
2023-01-13T11:42:24.118Z,86.05
2023-01-13T11:44:25.737Z,85.27
2023-01-13T11:46:27.124Z,84.65
2023-01-13T11:48:28.190Z,84.72
2023-01-13T11:50:29.344Z,84.14
2023-01-13T11:52:30.683Z,84.16
2023-01-13T11:54:31.923Z,84.3
2023-01-13T11:56:33.170Z,83.61
2023-01-13T11:58:45.565Z,83.14
2023-01-13T12:00:36.266Z,83.68
2023-01-13T12:02:38.035Z,82.71
2023-01-13T12:04:39.504Z,83.02
2023-01-13T12:06:41.193Z,82.46
2023-01-13T12:08:43.034Z,82.57
2023-01-13T12:10:44.474Z,82.71
2023-01-13T12:12:45.962Z,81.92
2023-01-13T12:14:46.920Z,81.5
2023-01-13T12:16:48.137Z,82.36
2023-01-13T12:18:49.720Z,82.96
2023-01-13T12:20:50.744Z,83.23
2023-01-13T12:24:53.743Z,83.32
2023-01-13T12:26:54.711Z,81.23
2023-01-13T12:28:56.022Z,80.9
2023-01-13T12:30:57.627Z,81.89
2023-01-13T12:32:58.665Z,80.8
2023-01-13T12:34:59.940Z,80.76
2023-01-13T12:37:00.819Z,81.46
2023-01-13T12:39:02.005Z,81.68
2023-01-13T12:41:03.429Z,82.65
2023-01-13T12:43:04.701Z,82.35
2023-01-13T12:45:06.468Z,81.92
2023-01-13T12:47:07.461Z,81.5
2023-01-13T12:49:08.965Z,80.62
2023-01-13T12:51:10.141Z,80.41
2023-01-13T12:53:11.630Z,79.33
2023-01-13T12:55:13.486Z,79.01
2023-01-13T12:57:14.569Z,78.72
2023-01-13T12:59:16.407Z,78.52
2023-01-13T13:01:17.887Z,79.17
2023-01-13T13:03:19.540Z,78.58
2023-01-13T13:07:22.963Z,78.93
2023-01-13T13:09:24.482Z,78.31
2023-01-13T13:13:26.490Z,76.96
2023-01-13T13:15:27.456Z,77.11
2023-01-13T13:17:29.015Z,76.28
2023-01-13T13:19:30.671Z,76.23
2023-01-13T13:23:33.896Z,75.13
2023-01-13T13:25:35.870Z,74.76
2023-01-13T13:27:37.625Z,75.8
2023-01-13T13:29:38.624Z,75.93
2023-01-13T13:31:40.265Z,75.96
2023-01-13T13:33:41.380Z,77.01
2023-01-13T13:35:43.117Z,77.21
2023-01-13T13:37:44.114Z,78.38
2023-01-13T13:39:45.782Z,78.6
2023-01-13T13:41:46.996Z,78.8
2023-01-13T13:43:48.184Z,78.12
2023-01-13T13:45:49.798Z,79.39
2023-01-13T13:47:50.848Z,83
2023-01-13T13:49:52.700Z,84.62
2023-01-13T13:51:53.934Z,83.86
2023-01-13T13:53:55.017Z,83.85
2023-01-13T13:56:05.484Z,82.38
2023-01-13T13:57:57.731Z,83.09
2023-01-13T13:59:59.094Z,83.34
2023-01-13T14:02:00.441Z,83.06
2023-01-13T14:04:01.880Z,83.03
2023-01-13T14:06:03.083Z,83.29
2023-01-13T14:08:03.958Z,83
2023-01-13T14:10:05.666Z,83.51
2023-01-13T14:12:07.009Z,83.53
2023-01-13T14:14:07.937Z,83.14
2023-01-13T14:16:09.503Z,83.21
2023-01-13T14:18:10.905Z,82.47
2023-01-13T14:20:12.178Z,82.32
2023-01-13T14:22:13.391Z,82.16
2023-01-13T14:24:14.516Z,82.89
2023-01-13T14:26:15.627Z,82.21
2023-01-13T14:28:16.643Z,81.97
2023-01-13T14:30:18.353Z,82.64
2023-01-13T14:32:20.068Z,82.95
2023-01-13T14:34:25.942Z,82.95
2023-01-13T14:38:24.601Z,83.39
2023-01-13T14:40:25.564Z,83.37
2023-01-13T14:42:26.582Z,82.87
2023-01-13T14:44:28.534Z,82.88
2023-01-13T14:48:31.904Z,83.31
2023-01-13T14:50:32.883Z,83.69
2023-01-13T14:52:34.179Z,84.26
2023-01-13T14:54:35.984Z,84.34
2023-01-13T14:56:37.334Z,84.61
2023-01-13T14:58:38.583Z,85.01
2023-01-13T15:00:39.964Z,85.38
2023-01-13T15:02:41.074Z,85.01
2023-01-13T15:04:42.347Z,84.19
2023-01-13T15:06:43.313Z,84.4
2023-01-13T15:08:44.389Z,84.81
2023-01-13T15:10:46.231Z,85.08
2023-01-13T15:12:47.935Z,84.93
2023-01-13T15:14:49.805Z,84.4
2023-01-13T15:16:51.676Z,84.45
2023-01-13T15:18:52.900Z,83.67
2023-01-13T15:20:54.137Z,83.56
2023-01-13T15:22:55.296Z,85.8
2023-01-13T15:24:57.064Z,84.94
2023-01-13T15:26:58.632Z,85.89
2023-01-13T15:31:01.558Z,84.22
2023-01-13T15:33:03.193Z,85.59
2023-01-13T15:37:06.271Z,85.82
2023-01-13T15:39:08.108Z,87
2023-01-13T15:41:09.887Z,86.59
2023-01-13T15:43:11.108Z,87.96
2023-01-13T15:47:14.786Z,88.29
2023-01-13T15:49:14.979Z,88.34
2023-01-13T15:51:16.455Z,87.66
2023-01-13T15:53:17.564Z,86.93
2023-01-13T15:55:18.893Z,88.07
2023-01-13T15:57:20.686Z,87.08
2023-01-13T15:59:22.053Z,87.72
2023-01-13T16:01:23.550Z,87.63
2023-01-13T16:03:24.387Z,86.69
2023-01-13T16:05:25.725Z,87.09
2023-01-13T16:07:27.429Z,86.17
2023-01-13T16:09:29.061Z,86.27
2023-01-13T16:11:30.384Z,86.97
2023-01-13T16:13:31.459Z,87.01
2023-01-13T16:15:32.737Z,87.23
2023-01-13T16:17:34.517Z,86.85
2023-01-13T16:19:35.757Z,86.39
2023-01-13T16:21:36.932Z,87.29
2023-01-13T16:23:38.088Z,87.16
2023-01-13T16:25:39.839Z,87.87
2023-01-13T16:29:42.452Z,86.81
2023-01-13T16:31:44.092Z,86.48
2023-01-13T16:33:45.258Z,86.79
2023-01-13T16:36:09.545Z,86.9
2023-01-13T16:37:48.262Z,87.57
2023-01-13T16:39:49.615Z,87.75
2023-01-13T16:41:51.400Z,87.15
2023-01-13T16:43:52.726Z,87.44
2023-01-13T16:45:54.212Z,87.67
2023-01-13T16:47:55.643Z,87.72
2023-01-13T16:49:56.691Z,87.7
2023-01-13T16:51:58.540Z,87.96
2023-01-13T16:53:59.813Z,87.33
2023-01-13T16:56:01.098Z,87.13
2023-01-13T16:58:02.827Z,87.38
2023-01-13T17:00:04.232Z,86.58
2023-01-13T17:02:06.005Z,86.42
2023-01-13T17:04:07.445Z,85.7
2023-01-13T17:06:08.658Z,84.99
2023-01-13T17:08:10.132Z,85.76
2023-01-13T17:12:13.255Z,85.89
2023-01-13T17:14:18.644Z,85.93
2023-01-13T17:16:15.748Z,85.82
2023-01-13T17:18:17.230Z,85.52
2023-01-13T17:20:18.265Z,85.74
2023-01-13T17:22:19.442Z,85.81
2023-01-13T17:24:21.172Z,85.48
2023-01-13T17:26:22.502Z,85.25
2023-01-13T17:28:23.929Z,84.96
2023-01-13T17:30:25.098Z,85.17
2023-01-13T17:32:26.665Z,84.92
2023-01-13T17:33:10.530Z,84.49
2023-01-13T17:35:12.399Z,84.35
2023-01-13T17:37:13.507Z,84.72
2023-01-13T17:39:14.680Z,84.63
2023-01-13T17:41:15.954Z,84.57
2023-01-13T17:43:17.448Z,84.69
2023-01-13T17:45:18.954Z,84.96
2023-01-13T17:47:20.481Z,85.5
2023-01-13T17:49:21.578Z,84.75
2023-01-13T17:51:22.745Z,83.88
2023-01-13T17:55:26.216Z,84.61
2023-01-13T17:57:27.782Z,83.74
2023-01-13T17:59:29.347Z,83.85
2023-01-13T18:01:30.958Z,83.01
2023-01-13T18:05:33.662Z,82.81
2023-01-13T18:07:34.764Z,82.88
2023-01-13T18:09:36.632Z,82.45
2023-01-13T18:11:37.813Z,82.74
2023-01-13T18:13:39.383Z,82.45
2023-01-13T18:15:41.009Z,82.57
2023-01-13T18:17:42.127Z,82.26
2023-01-13T18:19:43.846Z,82.74
2023-01-13T18:21:45.483Z,82.71
2023-01-13T18:23:46.945Z,82.2
2023-01-13T18:25:48.082Z,82.39
2023-01-13T18:27:49.842Z,82.18
2023-01-13T18:29:51.361Z,82.03
2023-01-13T18:31:52.662Z,82.06
2023-01-13T18:33:53.854Z,82.95
2023-01-13T18:35:55.682Z,83.18
2023-01-13T18:37:57.117Z,83.2
2023-01-13T18:39:58.606Z,82.75
2023-01-13T18:42:00.480Z,82.7
2023-01-13T18:44:01.552Z,82.92
2023-01-13T18:48:04.417Z,83.15
2023-01-13T18:50:05.477Z,83.49
2023-01-13T18:52:06.855Z,83.44
2023-01-13T18:54:08.731Z,83.84
2023-01-13T18:56:09.822Z,83.58
2023-01-13T18:58:11.248Z,83.85
2023-01-13T19:00:12.603Z,83.61
2023-01-13T19:02:14.318Z,83.17
2023-01-13T19:04:15.620Z,83.52
2023-01-13T19:06:16.768Z,84.06
2023-01-13T19:08:18.423Z,83.71
2023-01-13T19:10:19.897Z,83.81
2023-01-13T19:12:21.725Z,83.63
2023-01-13T19:14:22.692Z,83.84
2023-01-13T19:16:24.135Z,83.58
2023-01-13T19:20:26.690Z,83.51
2023-01-13T19:22:28.159Z,83.51
2023-01-13T19:24:29.980Z,83.41
2023-01-13T19:26:31.542Z,83.81
2023-01-13T19:30:33.896Z,83.65
2023-01-13T19:32:35.551Z,83.75
2023-01-13T19:34:37.339Z,83.64
2023-01-13T19:36:38.972Z,83.58
2023-01-13T19:38:40.819Z,83.41
2023-01-13T19:40:42.036Z,83.45
2023-01-13T19:42:43.241Z,83.68
2023-01-13T19:44:44.374Z,83.32
2023-01-13T19:46:45.962Z,83.36
2023-01-13T19:48:47.460Z,83.61
2023-01-13T19:50:49.700Z,83.83
2023-01-13T19:52:50.244Z,83.67
2023-01-13T19:54:51.580Z,83.93
2023-01-13T19:56:53.194Z,84.03
2023-01-13T19:58:54.765Z,84.11
2023-01-13T20:00:56.117Z,83.96
2023-01-13T20:02:57.964Z,84.04
2023-01-13T20:04:59.470Z,83.9
2023-01-13T20:07:01.336Z,83.94
2023-01-13T20:09:02.675Z,83.84
2023-01-13T20:13:05.804Z,83.95
2023-01-13T20:15:07.430Z,84.06
2023-01-13T20:17:09.335Z,83.98
2023-01-13T20:19:11.007Z,84
2023-01-13T20:21:12.225Z,84.13
2023-01-13T20:23:13.720Z,84.06
2023-01-13T20:25:15.313Z,83.98
2023-01-13T20:27:16.753Z,83.94
2023-01-13T20:29:17.761Z,83.82
2023-01-13T20:31:19.650Z,83.61
2023-01-13T20:33:20.813Z,83.23
2023-01-13T20:35:22.416Z,82.78
2023-01-13T20:37:24.069Z,83.22
2023-01-13T20:39:25.060Z,83.21
2023-01-13T20:41:26.687Z,83.35
2023-01-13T20:43:27.856Z,82.85
2023-01-13T20:45:28.977Z,82.78
2023-01-13T20:47:30.147Z,83.14
2023-01-13T20:49:32.016Z,83.17
2023-01-13T20:51:33.903Z,83.24
2023-01-13T20:55:36.637Z,83.03
2023-01-13T20:57:37.840Z,84.58
2023-01-13T20:59:39.725Z,85.46
2023-01-13T21:01:40.845Z,85.86
2023-01-13T21:03:41.842Z,86.14
2023-01-13T21:05:43.239Z,86.29
2023-01-13T21:07:45.036Z,85.94
2023-01-13T21:09:46.804Z,86.42
2023-01-13T21:11:47.807Z,86.91
2023-01-13T21:13:49.575Z,86.94
2023-01-13T21:17:53.273Z,87.06
2023-01-13T21:19:55.020Z,87.51
2023-01-13T21:21:57.001Z,87.24
2023-01-13T21:23:58.597Z,87.53
2023-01-13T21:28:01.973Z,86.41
2023-01-13T21:30:03.856Z,86.6
2023-01-13T21:32:04.850Z,86.97
2023-01-13T21:34:06.170Z,87
2023-01-13T21:36:07.993Z,86.93
2023-01-13T21:38:09.001Z,87.05
2023-01-13T21:40:10.111Z,86.26
2023-01-13T21:42:11.993Z,86.06
2023-01-13T21:44:13.182Z,86.55
2023-01-13T21:46:14.377Z,85.42
2023-01-13T21:48:16.072Z,85.78
2023-01-13T21:50:18.007Z,86.23
2023-01-13T21:52:19.408Z,86.77
2023-01-13T21:54:20.533Z,87.1
2023-01-13T21:56:21.509Z,87.27
2023-01-13T21:58:23.126Z,87.11
2023-01-13T22:00:24.524Z,87.11
2023-01-13T22:02:25.959Z,87.24
2023-01-13T22:04:27.220Z,87.08
2023-01-13T22:06:28.416Z,87.25
2023-01-13T22:08:29.969Z,86.97
2023-01-13T22:10:31.573Z,87.11
2023-01-13T22:12:33.111Z,87.44
2023-01-13T22:16:35.308Z,87.28
2023-01-13T22:18:37.067Z,87.1
2023-01-13T22:20:38.818Z,87.35
2023-01-13T22:22:39.959Z,87.35
2023-01-13T22:26:43.038Z,87.66
2023-01-13T22:28:44.350Z,87.27
2023-01-13T22:30:46.051Z,87.3
2023-01-13T22:32:47.049Z,86.97
2023-01-13T22:34:48.466Z,86.84
2023-01-13T22:36:50.223Z,86.69
2023-01-13T22:38:51.847Z,86.16
2023-01-13T22:40:53.139Z,86.27
2023-01-13T22:42:54.660Z,86.49
2023-01-13T22:44:56.254Z,86.37
2023-01-13T22:46:57.720Z,86.44
2023-01-13T22:48:58.982Z,86.72
2023-01-13T22:51:00.726Z,86.89
2023-01-13T22:53:01.766Z,87.05
2023-01-13T22:55:03.023Z,87.35
2023-01-13T22:57:04.587Z,87.48
2023-01-13T22:59:05.831Z,87.57
2023-01-13T23:01:07.186Z,87.61
2023-01-13T23:03:08.415Z,87.78
2023-01-13T23:05:10.178Z,87.45
2023-01-13T23:09:13.125Z,87.4
2023-01-13T23:11:14.878Z,87.42
2023-01-13T23:13:16.101Z,86.87
2023-01-13T23:15:17.205Z,86.78
2023-01-13T23:17:18.929Z,86.77
2023-01-13T23:19:20.181Z,86.29
2023-01-13T23:21:21.907Z,86.59
2023-01-13T23:23:23.693Z,86.54
2023-01-13T23:25:24.819Z,86.66
2023-01-13T23:27:26.180Z,86.18
2023-01-13T23:29:27.164Z,86.15
2023-01-13T23:31:28.249Z,86.41
2023-01-13T23:33:29.671Z,86.34
2023-01-13T23:35:30.978Z,86.07
2023-01-13T23:37:32.060Z,85.98
2023-01-13T23:41:34.953Z,85.72
2023-01-13T23:43:36.275Z,85.66
2023-01-13T23:45:38.067Z,85.61
2023-01-13T23:47:39.709Z,85.45
2023-01-13T23:51:42.291Z,85.19
2023-01-13T23:53:43.829Z,85.18
2023-01-13T23:55:45.528Z,85.57
2023-01-13T23:57:46.736Z,85.75
2023-01-13T23:59:48.346Z,85.61
